Главная страница
METAR-TAF:

METAR-TAF

Аэропорты :

Дамаск, Сирия

широта: 33-25N, долгота: 036-31E, высота над уровнем моря: 608 м

Текущие метеонаблюдения

Эта сводка был подготовлена 24 минут назад, в 12:00 UTC
Ветер 20 Узел от юго-западный
Температура 16°C
Влажность 31%
Давление 1010 hPa
Видимость 10 км и более
Нет облачности ниже 1500 м, и нет кучево-дождевой облачности

METAR: OSDI 221200Z 23020KT CAVOK 16/M01 Q1010

Время: 14:24 (12:24 UTC)

Прогноз

Прогноз действительный с 22-го 12 UTC до 23-го 18 UTC
Ветер 15 Узел от юго-западный с порывами до 25 Узел
Видимость 10 км и более
небольшая облачность на высоте 3000 фута
временами
С 23-го 00 UTC до 23-го 18 UTC
Ветер 25 Узел от юго-западный с порывами до 40 Узел
Видимость: 6000 м
небольшая облачность на высоте 2500 фута
Отдельные облака на высоте 3000 фута
Рассеянная облачность на высоте 9000 фута
ливневые дожди

TAF: OSDI 2212/2318 22015G25KT 9999 FEW030 TEMPO 2300/2318 22025G40KT 6000 SHRA FEW025 CB SCT030 BKN090

Метеонаблюдения и прогнозы для более 4000 аэропортов (сводки METAR и TAF).

Имеющиеся станции представлены на карте желтыми и красными точками.

Чтобы увидеть название станции, наведите на нее мышь.

Затем щелкните, чтобы увидеть метеонаблюдения и метеопрогнозы.

Управление картой: чтобы увеличить масштаб, щелкните зеленые кнопки с черным крестиком; чтобы уменьшить масштаб, щелкните зеленую кнопку с тире; для просмотра соседних карт щелкайте зеленые стрелки.


METAR-TAF: